createdAt,value
2018-10-12T00:00:10.553Z,20.30
2018-10-12T00:02:39.859Z,20.30
2018-10-12T00:05:08.771Z,20.30
2018-10-12T00:07:37.527Z,20.30
2018-10-12T00:10:06.494Z,20.30
2018-10-12T00:12:35.291Z,20.20
2018-10-12T00:15:04.114Z,20.20
2018-10-12T00:17:32.863Z,20.10
2018-10-12T00:20:01.627Z,20.10
2018-10-12T00:22:30.347Z,20.20
2018-10-12T00:24:59.204Z,20.20
2018-10-12T00:27:27.969Z,20.10
2018-10-12T00:29:56.732Z,20.10
2018-10-12T00:32:25.439Z,20.00
2018-10-12T00:34:54.171Z,20.00
2018-10-12T00:37:22.890Z,20.00
2018-10-12T00:39:51.638Z,20.00
2018-10-12T00:42:20.405Z,20.00
2018-10-12T00:44:49.283Z,20.00
2018-10-12T00:47:18.151Z,20.00
2018-10-12T00:49:46.863Z,20.00
2018-10-12T00:52:15.640Z,20.00
2018-10-12T00:54:44.497Z,19.90
2018-10-12T00:57:13.295Z,19.90
2018-10-12T00:59:42.102Z,20.00
2018-10-12T01:02:11.009Z,20.10
2018-10-12T01:04:39.733Z,20.10
2018-10-12T01:07:08.414Z,20.10
2018-10-12T01:09:37.149Z,20.10
2018-10-12T01:12:31.525Z,20.10
2018-10-12T01:15:00.796Z,20.10
2018-10-12T01:17:29.996Z,20.00
2018-10-12T01:19:59.039Z,19.90
2018-10-12T01:22:28.892Z,19.80
2018-10-12T01:24:58.752Z,19.80
2018-10-12T01:27:27.819Z,19.90
2018-10-12T01:29:56.594Z,20.10
2018-10-12T01:32:30.487Z,20.20
2018-10-12T01:34:59.149Z,20.20
2018-10-12T01:37:27.975Z,20.20
2018-10-12T01:39:56.865Z,20.10
2018-10-12T01:42:25.555Z,20.00
2018-10-12T01:44:54.405Z,19.80
2018-10-12T01:47:23.105Z,19.80
2018-10-12T01:49:51.919Z,19.80
2018-10-12T01:52:20.861Z,19.80
2018-10-12T01:54:49.674Z,19.80
2018-10-12T01:57:18.442Z,19.90
2018-10-12T01:59:47.273Z,20.10
2018-10-12T02:02:16.027Z,20.20
2018-10-12T02:04:44.851Z,20.30
2018-10-12T02:07:13.695Z,20.30
2018-10-12T02:09:42.476Z,20.30
2018-10-12T02:12:11.310Z,20.20
2018-10-12T02:14:40.128Z,20.20
2018-10-12T02:17:08.992Z,20.00
2018-10-12T02:19:37.789Z,19.90
2018-10-12T02:22:06.541Z,19.90
2018-10-12T02:24:35.253Z,19.90
2018-10-12T02:27:03.969Z,19.80
2018-10-12T02:29:32.685Z,19.70
2018-10-12T02:32:01.411Z,19.60
2018-10-12T02:34:30.136Z,19.40
2018-10-12T02:36:59.329Z,19.10
2018-10-12T02:39:28.132Z,18.50
2018-10-12T02:41:56.918Z,18.20
2018-10-12T02:44:25.709Z,17.90
2018-10-12T02:46:54.418Z,17.70
2018-10-12T02:49:23.146Z,17.40
2018-10-12T02:51:51.907Z,17.10
2018-10-12T02:54:20.735Z,17.00
2018-10-12T02:56:49.468Z,16.80
2018-10-12T02:59:18.217Z,16.70
2018-10-12T03:01:47.064Z,16.50
2018-10-12T03:04:15.836Z,16.30
2018-10-12T03:06:44.605Z,16.20
2018-10-12T03:09:13.525Z,16.10
2018-10-12T03:11:42.418Z,16.10
2018-10-12T03:14:11.185Z,16.00
2018-10-12T03:16:40.043Z,15.90
2018-10-12T03:19:08.850Z,15.90
2018-10-12T03:21:37.509Z,15.90
2018-10-12T03:24:06.271Z,15.90
2018-10-12T03:26:35.031Z,16.00
2018-10-12T03:29:03.791Z,15.90
2018-10-12T03:31:32.584Z,15.90
2018-10-12T03:34:01.888Z,15.90
2018-10-12T03:36:30.755Z,15.80
2018-10-12T03:38:59.526Z,15.70
2018-10-12T03:41:28.449Z,15.70
2018-10-12T03:43:57.245Z,15.70
2018-10-12T03:46:26.029Z,15.70
2018-10-12T03:48:54.800Z,15.70
2018-10-12T03:51:23.618Z,15.60
2018-10-12T03:53:52.289Z,15.70
2018-10-12T03:56:21.028Z,15.60
2018-10-12T03:58:49.825Z,15.60
2018-10-12T04:01:18.557Z,15.60
2018-10-12T04:03:47.338Z,15.60
2018-10-12T04:06:16.091Z,15.60
2018-10-12T04:08:44.909Z,15.50
2018-10-12T04:11:13.691Z,15.50
2018-10-12T04:13:42.423Z,15.40
2018-10-12T04:16:11.266Z,15.40
2018-10-12T04:18:39.966Z,15.30
2018-10-12T04:21:08.839Z,15.20
2018-10-12T04:23:37.572Z,15.20
2018-10-12T04:26:06.383Z,15.20
2018-10-12T04:28:35.096Z,15.10
2018-10-12T04:31:03.828Z,15.00
2018-10-12T04:33:32.610Z,15.00
2018-10-12T04:36:01.372Z,15.00
2018-10-12T04:38:40.028Z,15.00
2018-10-12T04:41:19.155Z,15.00
2018-10-12T04:43:49.331Z,14.90
2018-10-12T04:46:27.544Z,14.90
2018-10-12T04:48:56.459Z,14.90
2018-10-12T04:51:31.620Z,14.80
2018-10-12T04:54:00.543Z,14.80
2018-10-12T04:56:29.308Z,14.90
2018-10-12T04:58:58.056Z,14.80
2018-10-12T05:01:26.837Z,14.70
2018-10-12T05:03:55.642Z,14.70
2018-10-12T05:06:24.414Z,14.60
2018-10-12T05:08:53.201Z,14.60
2018-10-12T05:11:21.979Z,14.50
2018-10-12T05:13:50.779Z,14.40
2018-10-12T05:16:19.574Z,14.40
2018-10-12T05:18:48.249Z,14.40
2018-10-12T05:21:17.078Z,14.40
2018-10-12T05:23:45.887Z,14.40
2018-10-12T05:26:14.664Z,14.30
2018-10-12T05:28:43.463Z,14.20
2018-10-12T05:31:12.283Z,14.20
2018-10-12T05:33:41.041Z,14.20
2018-10-12T05:36:09.894Z,14.20
2018-10-12T05:38:38.618Z,14.10
2018-10-12T05:41:07.775Z,14.10
2018-10-12T05:43:36.549Z,14.00
2018-10-12T05:46:05.179Z,14.00
2018-10-12T05:48:45.065Z,13.90
2018-10-12T05:51:14.165Z,13.90
2018-10-12T05:53:42.933Z,13.90
2018-10-12T05:56:14.064Z,13.90
2018-10-12T05:58:43.830Z,13.90
2018-10-12T06:01:12.579Z,13.90
2018-10-12T06:03:41.324Z,14.00
2018-10-12T06:06:09.986Z,13.90
2018-10-12T06:08:38.901Z,13.90
2018-10-12T06:11:08.026Z,14.00
2018-10-12T06:13:36.940Z,14.00
2018-10-12T06:16:05.809Z,14.00
2018-10-12T06:18:34.506Z,14.00
2018-10-12T06:21:03.376Z,14.00
2018-10-12T06:23:32.171Z,14.00
2018-10-12T06:26:00.970Z,13.90
2018-10-12T06:28:29.899Z,13.90
2018-10-12T06:30:58.659Z,13.90
2018-10-12T06:33:27.401Z,13.90
2018-10-12T06:35:56.175Z,13.90
2018-10-12T06:38:24.878Z,13.90
2018-10-12T06:40:53.722Z,13.90
2018-10-12T06:43:22.601Z,13.90
2018-10-12T06:45:51.434Z,13.90
2018-10-12T06:48:20.184Z,13.80
2018-10-12T06:50:48.987Z,13.90
2018-10-12T06:53:17.794Z,13.90
2018-10-12T06:55:46.539Z,13.90
2018-10-12T06:58:15.329Z,13.90
2018-10-12T07:00:44.295Z,13.90
2018-10-12T07:03:13.082Z,13.80
2018-10-12T07:05:41.936Z,13.80
2018-10-12T07:08:10.676Z,13.70
2018-10-12T07:10:39.471Z,13.70
2018-10-12T07:13:08.447Z,13.70
2018-10-12T07:15:37.356Z,13.80
2018-10-12T07:18:06.121Z,13.80
2018-10-12T07:20:34.874Z,13.80
2018-10-12T07:23:03.714Z,13.80
2018-10-12T07:25:32.608Z,13.80
2018-10-12T07:28:01.412Z,13.90
2018-10-12T07:30:30.212Z,13.80
2018-10-12T07:32:58.976Z,13.80
2018-10-12T07:35:27.707Z,13.70
2018-10-12T07:37:56.585Z,13.70
2018-10-12T07:40:25.468Z,13.70
2018-10-12T07:42:54.300Z,13.60
2018-10-12T07:45:23.166Z,13.70
2018-10-12T07:47:51.907Z,13.70
2018-10-12T07:50:20.748Z,13.60
2018-10-12T07:52:49.506Z,13.70
2018-10-12T07:55:18.245Z,13.60
2018-10-12T07:57:47.058Z,13.70
2018-10-12T08:00:15.963Z,13.70
2018-10-12T08:02:44.663Z,13.70
2018-10-12T08:05:13.482Z,13.70
2018-10-12T08:07:42.185Z,13.70
2018-10-12T08:10:10.911Z,13.70
2018-10-12T08:12:39.616Z,13.80
2018-10-12T08:15:08.444Z,13.80
2018-10-12T08:17:37.166Z,13.80
2018-10-12T08:20:07.113Z,13.80
2018-10-12T08:22:35.925Z,13.80
2018-10-12T08:25:04.803Z,13.80
2018-10-12T08:27:33.571Z,13.90
2018-10-12T08:30:02.390Z,14.00
2018-10-12T08:32:31.243Z,14.10
2018-10-12T08:35:00.069Z,14.30
2018-10-12T08:37:28.787Z,14.50
2018-10-12T08:39:57.558Z,14.70
2018-10-12T08:42:26.342Z,14.90
2018-10-12T08:44:55.030Z,15.20
2018-10-12T08:47:23.831Z,15.50
2018-10-12T08:49:52.710Z,15.70
2018-10-12T08:52:21.571Z,15.90
2018-10-12T08:54:50.331Z,16.10
2018-10-12T08:57:19.103Z,16.30
2018-10-12T08:59:47.925Z,16.40
2018-10-12T09:02:16.655Z,16.60
2018-10-12T09:04:45.435Z,16.70
2018-10-12T09:07:14.303Z,16.70
2018-10-12T09:09:43.180Z,16.90
2018-10-12T09:12:11.831Z,17.00
2018-10-12T09:14:40.578Z,17.10
2018-10-12T09:17:09.440Z,17.20
2018-10-12T09:19:38.274Z,17.40
2018-10-12T09:22:07.251Z,17.40
2018-10-12T09:24:36.066Z,17.50
2018-10-12T09:27:04.852Z,17.70
2018-10-12T09:29:33.618Z,17.70
2018-10-12T09:32:02.264Z,17.90
2018-10-12T09:34:31.005Z,18.00
2018-10-12T09:36:59.903Z,18.10
2018-10-12T09:39:28.708Z,18.20
2018-10-12T09:41:57.491Z,18.40
2018-10-12T09:44:26.342Z,18.50
2018-10-12T09:46:55.145Z,18.70
2018-10-12T09:49:23.843Z,18.80
2018-10-12T09:51:52.623Z,18.90
2018-10-12T09:54:21.293Z,19.10
2018-10-12T09:56:55.282Z,19.20
2018-10-12T09:59:24.105Z,19.40
2018-10-12T10:01:57.995Z,19.50
2018-10-12T10:04:30.540Z,19.70
2018-10-12T10:06:59.982Z,19.80
2018-10-12T10:09:29.258Z,20.00
2018-10-12T10:11:58.323Z,20.10
2018-10-12T10:14:27.243Z,20.20
2018-10-12T10:16:55.976Z,20.30
2018-10-12T10:19:24.747Z,20.40
2018-10-12T10:21:53.450Z,20.60
2018-10-12T10:24:22.237Z,20.80
2018-10-12T10:26:50.879Z,20.90
2018-10-12T10:29:19.520Z,21.10
2018-10-12T10:31:48.142Z,21.10
2018-10-12T10:34:16.990Z,21.20
2018-10-12T10:36:45.690Z,21.40
2018-10-12T10:39:14.755Z,21.50
2018-10-12T10:41:43.450Z,21.60
2018-10-12T10:44:12.126Z,21.70
2018-10-12T10:46:40.732Z,21.80
2018-10-12T10:49:10.227Z,22.10
2018-10-12T10:51:38.965Z,22.30
2018-10-12T10:54:07.642Z,22.50
2018-10-12T10:56:36.307Z,22.60
2018-10-12T10:59:05.795Z,22.70
2018-10-12T11:01:34.518Z,22.70
2018-10-12T11:04:03.230Z,22.70
2018-10-12T11:06:32.297Z,22.60
2018-10-12T11:09:00.950Z,22.70
2018-10-12T11:11:29.830Z,22.70
2018-10-12T11:13:58.851Z,22.80
2018-10-12T11:16:27.522Z,22.80
2018-10-12T11:18:56.205Z,22.80
2018-10-12T11:21:24.884Z,22.90
2018-10-12T11:23:53.739Z,23.00
2018-10-12T11:26:22.456Z,23.00
2018-10-12T11:28:51.168Z,23.00
2018-10-12T11:31:19.874Z,23.00
2018-10-12T11:33:48.795Z,23.10
2018-10-12T11:36:17.515Z,23.10
2018-10-12T11:38:46.202Z,23.10
2018-10-12T11:41:14.986Z,23.20
2018-10-12T11:43:43.865Z,23.30
2018-10-12T11:46:12.468Z,23.40
2018-10-12T11:48:41.392Z,23.50
2018-10-12T11:51:10.066Z,23.60
2018-10-12T11:53:38.689Z,23.70
2018-10-12T11:56:07.774Z,23.70
2018-10-12T11:58:36.718Z,23.60
2018-10-12T12:01:05.414Z,23.60
2018-10-12T12:03:34.152Z,23.60
2018-10-12T12:06:02.891Z,23.60
2018-10-12T12:08:31.532Z,23.80
2018-10-12T12:11:00.212Z,23.90
2018-10-12T12:13:28.940Z,24.10
2018-10-12T12:15:57.574Z,24.20
2018-10-12T12:18:26.307Z,24.10
2018-10-12T12:21:09.226Z,24.20
2018-10-12T12:26:31.171Z,24.60
2018-10-12T12:28:59.847Z,24.70
2018-10-12T12:31:28.530Z,24.80
2018-10-12T12:33:57.222Z,24.90
2018-10-12T12:36:26.035Z,24.80
2018-10-12T12:38:54.691Z,24.60
2018-10-12T12:41:23.330Z,24.60
2018-10-12T12:43:52.546Z,24.80
2018-10-12T12:46:21.255Z,24.80
2018-10-12T12:48:50.397Z,24.90
2018-10-12T12:51:18.612Z,24.90
2018-10-12T12:53:47.361Z,24.90
2018-10-12T12:56:16.074Z,24.80
2018-10-12T12:58:45.226Z,24.70
2018-10-12T13:01:13.883Z,24.70
2018-10-12T13:03:42.598Z,24.40
2018-10-12T13:06:11.302Z,24.20
2018-10-12T13:08:39.936Z,24.00
2018-10-12T13:11:09.019Z,23.80
2018-10-12T13:13:37.764Z,23.70
2018-10-12T13:16:06.649Z,23.60
2018-10-12T13:18:35.401Z,23.70
2018-10-12T13:21:04.215Z,23.90
2018-10-12T13:23:32.995Z,23.90
2018-10-12T13:26:01.915Z,24.00
2018-10-12T13:28:30.520Z,23.80
2018-10-12T13:30:59.274Z,23.60
2018-10-12T13:33:28.039Z,23.50
2018-10-12T13:35:56.926Z,23.50
2018-10-12T13:38:25.748Z,23.50
2018-10-12T13:40:54.480Z,23.60
2018-10-12T13:43:23.254Z,23.60
2018-10-12T13:45:51.969Z,23.70
2018-10-12T13:48:20.741Z,23.60
2018-10-12T13:50:49.511Z,23.80
2018-10-12T13:53:18.226Z,23.80
2018-10-12T13:55:47.035Z,23.80
2018-10-12T13:58:15.893Z,23.70
2018-10-12T14:00:44.764Z,23.70
2018-10-12T14:03:13.486Z,23.70
2018-10-12T14:05:42.213Z,23.80
2018-10-12T14:08:11.084Z,23.80
2018-10-12T14:10:39.788Z,23.90
2018-10-12T14:13:08.578Z,23.90
2018-10-12T14:15:37.269Z,24.00
2018-10-12T14:18:06.313Z,23.90
2018-10-12T14:20:35.099Z,23.90
2018-10-12T14:23:03.981Z,23.90
2018-10-12T14:25:32.951Z,24.00
2018-10-12T14:28:01.769Z,24.00
2018-10-12T14:30:30.524Z,23.90
2018-10-12T14:32:59.299Z,23.80
2018-10-12T14:35:28.023Z,24.00
2018-10-12T14:37:56.851Z,24.10
2018-10-12T14:40:25.510Z,24.10
2018-10-12T14:42:54.302Z,24.10
2018-10-12T14:45:23.084Z,24.10
2018-10-12T14:47:51.964Z,24.00
2018-10-12T14:50:20.732Z,23.80
2018-10-12T14:52:49.485Z,23.40
2018-10-12T14:55:18.167Z,22.80
2018-10-12T14:57:46.991Z,22.10
2018-10-12T15:00:15.804Z,21.50
2018-10-12T15:02:44.597Z,21.00
2018-10-12T15:05:13.354Z,20.90
2018-10-12T15:07:42.137Z,20.70
2018-10-12T15:10:10.871Z,20.50
2018-10-12T15:12:39.650Z,20.40
2018-10-12T15:15:21.080Z,20.30
2018-10-12T15:17:50.930Z,20.30
2018-10-12T15:20:19.898Z,20.30
2018-10-12T15:22:48.554Z,20.30
2018-10-12T15:25:17.282Z,20.20
2018-10-12T15:27:46.130Z,20.20
2018-10-12T15:30:15.547Z,20.30
2018-10-12T15:32:44.239Z,20.20
2018-10-12T15:35:13.573Z,20.10
2018-10-12T15:37:43.011Z,20.00
2018-10-12T15:40:11.699Z,19.90
2018-10-12T15:42:40.873Z,19.90
2018-10-12T15:45:09.478Z,19.80
2018-10-12T15:47:38.695Z,19.70
2018-10-12T15:50:08.142Z,19.70
2018-10-12T15:52:36.989Z,19.70
2018-10-12T15:55:05.766Z,19.50
2018-10-12T15:57:34.658Z,19.30
2018-10-12T16:00:03.352Z,19.30
2018-10-12T16:02:32.084Z,19.30
2018-10-12T16:05:00.912Z,19.30
2018-10-12T16:07:29.754Z,19.00
2018-10-12T16:09:58.435Z,18.80
2018-10-12T16:12:27.124Z,18.80
2018-10-12T16:14:55.850Z,18.80
2018-10-12T16:17:24.587Z,18.80
2018-10-12T16:19:53.369Z,18.70
2018-10-12T16:22:22.209Z,18.60
2018-10-12T16:25:01.882Z,18.60
2018-10-12T16:27:30.858Z,18.60
2018-10-12T16:29:59.566Z,18.60
2018-10-12T16:32:28.234Z,18.60
2018-10-12T16:34:56.954Z,18.60
2018-10-12T16:37:25.611Z,18.60
2018-10-12T16:39:54.266Z,18.60
2018-10-12T16:42:22.995Z,18.40
2018-10-12T16:44:51.719Z,18.30
2018-10-12T16:47:20.514Z,18.10
2018-10-12T16:49:49.257Z,18.00
2018-10-12T16:52:18.386Z,18.00
2018-10-12T16:54:47.276Z,18.10
2018-10-12T16:57:16.356Z,18.10
2018-10-12T16:59:45.095Z,18.00
2018-10-12T17:02:13.842Z,17.90
2018-10-12T17:05:01.542Z,17.80
2018-10-12T17:07:30.347Z,17.70
2018-10-12T17:09:58.984Z,17.70
2018-10-12T17:12:27.681Z,17.60
2018-10-12T17:18:02.634Z,17.60
2018-10-12T17:20:31.665Z,17.60
2018-10-12T17:23:00.434Z,17.60
2018-10-12T17:25:29.226Z,17.60
2018-10-12T17:27:57.883Z,17.50
2018-10-12T17:30:27.035Z,17.50
2018-10-12T17:32:55.768Z,17.40
2018-10-12T17:35:24.491Z,17.40
2018-10-12T17:37:53.190Z,17.40
2018-10-12T17:40:21.964Z,17.40
2018-10-12T17:42:50.763Z,17.40
2018-10-12T17:45:19.537Z,17.40
2018-10-12T17:47:48.324Z,17.40
2018-10-12T17:50:17.038Z,17.40
2018-10-12T17:52:45.774Z,17.40
2018-10-12T17:55:14.701Z,17.40
2018-10-12T17:57:43.522Z,17.40
2018-10-12T18:00:12.433Z,17.40
2018-10-12T18:02:41.222Z,17.40
2018-10-12T18:05:10.026Z,17.40
2018-10-12T18:07:38.791Z,17.50
2018-10-12T18:10:09.071Z,17.50
2018-10-12T18:12:37.835Z,17.40
2018-10-12T18:15:09.426Z,17.30
2018-10-12T18:17:38.238Z,17.30
2018-10-12T18:20:07.427Z,17.30
2018-10-12T18:22:36.285Z,17.30
2018-10-12T18:25:05.855Z,17.20
2018-10-12T18:27:34.618Z,17.20
2018-10-12T18:30:03.489Z,17.10
2018-10-12T18:32:32.344Z,17.10
2018-10-12T18:35:01.339Z,17.00
2018-10-12T18:37:30.119Z,16.90
2018-10-12T18:39:58.917Z,16.90
2018-10-12T18:42:27.673Z,16.90
2018-10-12T18:44:56.756Z,16.80
2018-10-12T18:47:25.636Z,16.70
2018-10-12T18:49:54.466Z,16.70
2018-10-12T18:52:23.294Z,16.60
2018-10-12T18:54:52.088Z,16.50
2018-10-12T18:57:20.843Z,16.60
2018-10-12T18:59:49.687Z,16.40
2018-10-12T19:02:18.504Z,16.40
2018-10-12T19:04:47.412Z,16.20
2018-10-12T19:07:16.084Z,16.20
2018-10-12T19:09:44.964Z,16.20
2018-10-12T19:12:13.715Z,16.20
2018-10-12T19:14:42.524Z,16.20
2018-10-12T19:17:11.310Z,16.20
2018-10-12T19:19:40.228Z,16.20
2018-10-12T19:22:08.995Z,16.20
2018-10-12T19:24:37.791Z,16.10
2018-10-12T19:27:06.748Z,16.00
2018-10-12T19:29:35.519Z,16.00
2018-10-12T19:32:04.332Z,16.00
2018-10-12T19:34:33.101Z,15.90
2018-10-12T19:37:01.816Z,16.00
2018-10-12T19:39:30.535Z,15.90
2018-10-12T19:41:59.382Z,15.90
2018-10-12T19:44:28.147Z,15.90
2018-10-12T19:46:56.883Z,15.80
2018-10-12T19:49:25.632Z,15.80
2018-10-12T19:51:54.343Z,15.70
2018-10-12T19:54:23.047Z,15.60
2018-10-12T19:56:51.766Z,15.60
2018-10-12T19:59:20.475Z,15.60
2018-10-12T20:01:49.311Z,15.60
2018-10-12T20:04:18.078Z,15.60
2018-10-12T20:06:46.830Z,15.60
2018-10-12T20:09:15.575Z,15.50
2018-10-12T20:11:44.316Z,15.30
2018-10-12T20:14:13.075Z,15.20
2018-10-12T20:16:41.827Z,15.20
2018-10-12T20:19:10.563Z,15.20
2018-10-12T20:21:39.311Z,15.20
2018-10-12T20:24:08.544Z,15.20
2018-10-12T20:26:37.268Z,15.20
2018-10-12T20:29:06.113Z,15.20
2018-10-12T20:31:34.929Z,15.20
2018-10-12T20:34:03.719Z,15.20
2018-10-12T20:36:32.482Z,15.10
2018-10-12T20:39:01.288Z,15.10
2018-10-12T20:41:30.054Z,15.00
2018-10-12T20:43:58.842Z,15.00
2018-10-12T20:46:27.616Z,15.00
2018-10-12T20:48:56.429Z,14.90
2018-10-12T20:51:25.249Z,14.80
2018-10-12T20:53:54.060Z,14.80
2018-10-12T20:56:22.806Z,14.60
2018-10-12T20:58:51.525Z,14.60
2018-10-12T21:01:20.246Z,14.60
2018-10-12T21:03:53.946Z,14.60
2018-10-12T21:06:22.682Z,14.60
2018-10-12T21:08:51.430Z,14.60
2018-10-12T21:11:20.245Z,14.60
2018-10-12T21:13:49.139Z,14.50
2018-10-12T21:16:17.939Z,14.50
2018-10-12T21:18:46.740Z,14.50
2018-10-12T21:21:15.675Z,14.50
2018-10-12T21:23:44.527Z,14.50
2018-10-12T21:26:13.303Z,14.50
2018-10-12T21:28:42.072Z,14.40
2018-10-12T21:31:10.915Z,14.40
2018-10-12T21:33:39.796Z,14.40
2018-10-12T21:36:08.739Z,14.40
2018-10-12T21:38:37.503Z,14.50
2018-10-12T21:41:06.256Z,14.40
2018-10-12T21:43:35.070Z,14.30
2018-10-12T21:46:03.946Z,14.30
2018-10-12T21:48:32.690Z,14.20
2018-10-12T21:51:01.374Z,14.10
2018-10-12T21:53:30.126Z,14.00
2018-10-12T21:55:58.899Z,13.90
2018-10-12T21:58:27.653Z,13.90
2018-10-12T22:01:01.951Z,13.90
2018-10-12T22:03:30.918Z,13.90
2018-10-12T22:05:59.602Z,13.90
2018-10-12T22:08:33.760Z,13.90
2018-10-12T22:11:02.684Z,13.80
2018-10-12T22:13:31.615Z,13.80
2018-10-12T22:16:00.384Z,13.80
2018-10-12T22:18:29.274Z,13.80
2018-10-12T22:20:58.070Z,13.80
2018-10-12T22:23:27.375Z,13.80
2018-10-12T22:25:56.185Z,13.80
2018-10-12T22:28:24.940Z,13.80
2018-10-12T22:30:53.645Z,13.90
2018-10-12T22:33:22.379Z,13.80
2018-10-12T22:35:51.292Z,13.80
2018-10-12T22:38:20.061Z,13.80
2018-10-12T22:40:48.868Z,13.80
2018-10-12T22:43:17.877Z,13.70
2018-10-12T22:45:46.682Z,13.60
2018-10-12T22:48:15.471Z,13.60
2018-10-12T22:50:44.357Z,13.60
2018-10-12T22:53:13.124Z,13.60
2018-10-12T22:55:41.854Z,13.50
2018-10-12T22:58:10.562Z,13.50
2018-10-12T23:00:39.291Z,13.60
2018-10-12T23:03:08.120Z,13.60
2018-10-12T23:05:36.847Z,13.80
2018-10-12T23:08:05.847Z,13.80
2018-10-12T23:10:34.571Z,13.80
2018-10-12T23:13:03.389Z,13.80
2018-10-12T23:15:32.088Z,13.80
2018-10-12T23:18:00.835Z,13.90
2018-10-12T23:20:29.678Z,13.90
2018-10-12T23:22:58.466Z,13.90
2018-10-12T23:25:27.193Z,13.80
2018-10-12T23:27:55.906Z,13.80
2018-10-12T23:30:24.751Z,13.80
2018-10-12T23:32:53.625Z,13.80
2018-10-12T23:35:22.306Z,13.80
2018-10-12T23:37:51.011Z,13.70
2018-10-12T23:40:19.820Z,13.60
2018-10-12T23:42:48.548Z,13.50
2018-10-12T23:45:17.288Z,13.50
2018-10-12T23:47:45.971Z,13.40
2018-10-12T23:50:14.675Z,13.30
2018-10-12T23:52:43.483Z,13.30
2018-10-12T23:55:12.218Z,13.20
2018-10-12T23:57:40.992Z,13.20
